sensor_id;sensor_type;location;lat;lon;timestamp;temperature;humidity
2463;DHT22;1243;54.298;10.172;2023-03-01T00:01:29;0.90;29.30
2463;DHT22;1243;54.298;10.172;2023-03-01T00:03:56;0.90;29.10
2463;DHT22;1243;54.298;10.172;2023-03-01T00:06:24;0.90;29.80
2463;DHT22;1243;54.298;10.172;2023-03-01T00:08:50;0.90;30.60
2463;DHT22;1243;54.298;10.172;2023-03-01T00:11:20;0.90;31.10
2463;DHT22;1243;54.298;10.172;2023-03-01T00:13:48;0.90;32.30
2463;DHT22;1243;54.298;10.172;2023-03-01T00:16:21;0.90;34.10
2463;DHT22;1243;54.298;10.172;2023-03-01T00:18:47;0.90;36.60
2463;DHT22;1243;54.298;10.172;2023-03-01T00:21:13;0.90;36.40
2463;DHT22;1243;54.298;10.172;2023-03-01T00:23:39;0.90;39.70
2463;DHT22;1243;54.298;10.172;2023-03-01T00:26:10;0.90;41.40
2463;DHT22;1243;54.298;10.172;2023-03-01T00:28:36;0.90;45.30
2463;DHT22;1243;54.298;10.172;2023-03-01T00:31:07;0.90;41.80
2463;DHT22;1243;54.298;10.172;2023-03-01T00:33:33;0.90;45.70
2463;DHT22;1243;54.298;10.172;2023-03-01T00:36:00;0.90;48.40
2463;DHT22;1243;54.298;10.172;2023-03-01T00:38:26;0.90;48.40
2463;DHT22;1243;54.298;10.172;2023-03-01T00:40:52;0.90;46.70
2463;DHT22;1243;54.298;10.172;2023-03-01T00:43:18;0.90;50.40
2463;DHT22;1243;54.298;10.172;2023-03-01T00:45:43;0.80;44.10
2463;DHT22;1243;54.298;10.172;2023-03-01T00:48:09;0.80;48.40
2463;DHT22;1243;54.298;10.172;2023-03-01T00:50:35;0.80;49.00
2463;DHT22;1243;54.298;10.172;2023-03-01T00:53:00;0.90;53.90
2463;DHT22;1243;54.298;10.172;2023-03-01T00:55:26;0.90;57.70
2463;DHT22;1243;54.298;10.172;2023-03-01T00:57:52;0.90;60.90
2463;DHT22;1243;54.298;10.172;2023-03-01T01:00:18;1.00;62.50
2463;DHT22;1243;54.298;10.172;2023-03-01T01:02:44;1.00;67.00
2463;DHT22;1243;54.298;10.172;2023-03-01T01:05:11;1.00;70.10
2463;DHT22;1243;54.298;10.172;2023-03-01T01:07:37;1.00;74.60
2463;DHT22;1243;54.298;10.172;2023-03-01T01:10:03;1.10;85.00
2463;DHT22;1243;54.298;10.172;2023-03-01T01:12:29;1.10;88.60
2463;DHT22;1243;54.298;10.172;2023-03-01T01:14:54;1.10;88.60
2463;DHT22;1243;54.298;10.172;2023-03-01T01:17:20;1.10;88.60
2463;DHT22;1243;54.298;10.172;2023-03-01T01:19:46;1.10;88.70
2463;DHT22;1243;54.298;10.172;2023-03-01T01:22:11;1.10;94.00
2463;DHT22;1243;54.298;10.172;2023-03-01T01:24:37;1.10;97.50
2463;DHT22;1243;54.298;10.172;2023-03-01T01:27:03;1.10;99.90
2463;DHT22;1243;54.298;10.172;2023-03-01T01:29:29;1.10;99.90
2463;DHT22;1243;54.298;10.172;2023-03-01T01:31:54;1.10;99.90
2463;DHT22;1243;54.298;10.172;2023-03-01T01:34:21;1.10;99.90
2463;DHT22;1243;54.298;10.172;2023-03-01T01:36:49;1.10;99.90
2463;DHT22;1243;54.298;10.172;2023-03-01T01:39:15;1.00;99.90
2463;DHT22;1243;54.298;10.172;2023-03-01T01:41:42;1.00;99.90
2463;DHT22;1243;54.298;10.172;2023-03-01T01:44:18;1.00;99.90
2463;DHT22;1243;54.298;10.172;2023-03-01T01:46:47;1.00;99.90
2463;DHT22;1243;54.298;10.172;2023-03-01T01:52:08;0.90;99.90
2463;DHT22;1243;54.298;10.172;2023-03-01T01:57:11;0.90;99.90
2463;DHT22;1243;54.298;10.172;2023-03-01T01:59:38;0.90;99.90
2463;DHT22;1243;54.298;10.172;2023-03-01T02:02:05;0.90;99.90
2463;DHT22;1243;54.298;10.172;2023-03-01T02:04:32;0.80;99.90
2463;DHT22;1243;54.298;10.172;2023-03-01T02:07:02;0.80;99.90
2463;DHT22;1243;54.298;10.172;2023-03-01T02:09:30;0.70;99.90
2463;DHT22;1243;54.298;10.172;2023-03-01T02:11:57;0.70;99.90
2463;DHT22;1243;54.298;10.172;2023-03-01T02:14:23;0.70;99.90
2463;DHT22;1243;54.298;10.172;2023-03-01T02:16:49;0.80;99.90
2463;DHT22;1243;54.298;10.172;2023-03-01T02:19:33;0.60;99.90
2463;DHT22;1243;54.298;10.172;2023-03-01T02:27:20;0.50;99.90
2463;DHT22;1243;54.298;10.172;2023-03-01T02:29:50;0.50;99.90
2463;DHT22;1243;54.298;10.172;2023-03-01T02:32:16;0.60;99.90
2463;DHT22;1243;54.298;10.172;2023-03-01T02:34:54;0.70;99.90
2463;DHT22;1243;54.298;10.172;2023-03-01T02:37:21;0.70;99.90
2463;DHT22;1243;54.298;10.172;2023-03-01T02:39:54;0.70;99.90
2463;DHT22;1243;54.298;10.172;2023-03-01T02:42:27;0.70;99.90
2463;DHT22;1243;54.298;10.172;2023-03-01T02:44:54;0.70;99.90
2463;DHT22;1243;54.298;10.172;2023-03-01T02:47:20;0.80;99.90
2463;DHT22;1243;54.298;10.172;2023-03-01T02:49:46;0.80;99.90
2463;DHT22;1243;54.298;10.172;2023-03-01T02:55:06;0.70;99.90
2463;DHT22;1243;54.298;10.172;2023-03-01T02:57:36;0.70;99.90
2463;DHT22;1243;54.298;10.172;2023-03-01T03:00:13;0.70;99.90
2463;DHT22;1243;54.298;10.172;2023-03-01T03:02:46;0.60;99.90
2463;DHT22;1243;54.298;10.172;2023-03-01T03:05:15;0.60;99.90
2463;DHT22;1243;54.298;10.172;2023-03-01T03:07:43;0.60;99.90
2463;DHT22;1243;54.298;10.172;2023-03-01T03:10:16;0.60;99.90
2463;DHT22;1243;54.298;10.172;2023-03-01T03:12:42;0.70;99.90
2463;DHT22;1243;54.298;10.172;2023-03-01T03:15:09;0.70;99.90
2463;DHT22;1243;54.298;10.172;2023-03-01T03:17:39;0.80;99.90
2463;DHT22;1243;54.298;10.172;2023-03-01T03:20:07;0.80;99.90
2463;DHT22;1243;54.298;10.172;2023-03-01T03:22:40;0.60;99.90
2463;DHT22;1243;54.298;10.172;2023-03-01T03:25:09;0.60;99.90
2463;DHT22;1243;54.298;10.172;2023-03-01T03:27:37;0.60;99.90
2463;DHT22;1243;54.298;10.172;2023-03-01T03:30:05;0.60;99.90
2463;DHT22;1243;54.298;10.172;2023-03-01T03:32:38;0.60;99.90
2463;DHT22;1243;54.298;10.172;2023-03-01T03:35:05;0.60;99.90
2463;DHT22;1243;54.298;10.172;2023-03-01T03:37:38;0.60;99.90
2463;DHT22;1243;54.298;10.172;2023-03-01T03:40:23;0.60;99.90
2463;DHT22;1243;54.298;10.172;2023-03-01T03:42:48;0.60;99.90
2463;DHT22;1243;54.298;10.172;2023-03-01T03:45:15;0.60;99.90
2463;DHT22;1243;54.298;10.172;2023-03-01T03:47:41;0.50;99.90
2463;DHT22;1243;54.298;10.172;2023-03-01T03:50:08;0.40;99.90
2463;DHT22;1243;54.298;10.172;2023-03-01T03:52:34;0.30;99.90
2463;DHT22;1243;54.298;10.172;2023-03-01T03:55:00;0.20;99.90
2463;DHT22;1243;54.298;10.172;2023-03-01T03:57:26;0.00;99.90
2463;DHT22;1243;54.298;10.172;2023-03-01T03:59:51;0.00;99.90
2463;DHT22;1243;54.298;10.172;2023-03-01T04:02:17;0.00;99.90
2463;DHT22;1243;54.298;10.172;2023-03-01T04:04:48;0.00;99.90
2463;DHT22;1243;54.298;10.172;2023-03-01T04:07:17;0.10;99.90
2463;DHT22;1243;54.298;10.172;2023-03-01T04:09:43;0.10;99.90
2463;DHT22;1243;54.298;10.172;2023-03-01T04:12:10;0.10;99.90
2463;DHT22;1243;54.298;10.172;2023-03-01T04:14:36;0.10;99.90
2463;DHT22;1243;54.298;10.172;2023-03-01T04:17:01;0.20;99.90
2463;DHT22;1243;54.298;10.172;2023-03-01T04:19:31;0.30;99.90
2463;DHT22;1243;54.298;10.172;2023-03-01T04:22:02;0.20;99.90
2463;DHT22;1243;54.298;10.172;2023-03-01T04:24:33;0.10;99.90
2463;DHT22;1243;54.298;10.172;2023-03-01T04:26:59;0.10;99.90
2463;DHT22;1243;54.298;10.172;2023-03-01T04:29:24;0.20;99.90
2463;DHT22;1243;54.298;10.172;2023-03-01T04:31:50;0.20;99.90
2463;DHT22;1243;54.298;10.172;2023-03-01T04:34:16;0.20;99.90
2463;DHT22;1243;54.298;10.172;2023-03-01T04:36:41;0.30;99.90
2463;DHT22;1243;54.298;10.172;2023-03-01T04:39:07;0.30;99.90
2463;DHT22;1243;54.298;10.172;2023-03-01T04:41:38;0.20;99.90
2463;DHT22;1243;54.298;10.172;2023-03-01T04:44:05;0.10;99.90
2463;DHT22;1243;54.298;10.172;2023-03-01T04:46:31;0.00;99.90
2463;DHT22;1243;54.298;10.172;2023-03-01T04:48:57;0.00;99.90
2463;DHT22;1243;54.298;10.172;2023-03-01T04:51:23;0.00;99.90
2463;DHT22;1243;54.298;10.172;2023-03-01T04:53:49;0.00;99.90
2463;DHT22;1243;54.298;10.172;2023-03-01T04:56:15;0.10;99.90
2463;DHT22;1243;54.298;10.172;2023-03-01T04:58:44;0.10;99.90
2463;DHT22;1243;54.298;10.172;2023-03-01T05:01:14;0.20;99.90
2463;DHT22;1243;54.298;10.172;2023-03-01T05:03:44;0.20;99.90
2463;DHT22;1243;54.298;10.172;2023-03-01T05:06:11;0.10;99.90
2463;DHT22;1243;54.298;10.172;2023-03-01T05:08:38;0.20;99.90
2463;DHT22;1243;54.298;10.172;2023-03-01T05:11:04;0.10;99.90
2463;DHT22;1243;54.298;10.172;2023-03-01T05:13:31;0.20;99.90
2463;DHT22;1243;54.298;10.172;2023-03-01T05:16:00;0.20;99.90
2463;DHT22;1243;54.298;10.172;2023-03-01T05:18:28;0.10;99.90
2463;DHT22;1243;54.298;10.172;2023-03-01T05:21:01;0.10;99.90
2463;DHT22;1243;54.298;10.172;2023-03-01T05:23:32;0.10;99.90
2463;DHT22;1243;54.298;10.172;2023-03-01T05:25:59;0.10;99.90
2463;DHT22;1243;54.298;10.172;2023-03-01T05:28:26;0.10;99.90
2463;DHT22;1243;54.298;10.172;2023-03-01T05:30:54;0.00;99.90
2463;DHT22;1243;54.298;10.172;2023-03-01T05:33:19;0.00;99.90
2463;DHT22;1243;54.298;10.172;2023-03-01T05:35:47;0.10;99.90
2463;DHT22;1243;54.298;10.172;2023-03-01T05:38:14;0.10;99.90
2463;DHT22;1243;54.298;10.172;2023-03-01T05:40:42;0.10;99.90
2463;DHT22;1243;54.298;10.172;2023-03-01T05:43:09;0.10;99.90
2463;DHT22;1243;54.298;10.172;2023-03-01T05:45:37;0.00;99.90
2463;DHT22;1243;54.298;10.172;2023-03-01T05:48:04;0.10;99.90
2463;DHT22;1243;54.298;10.172;2023-03-01T05:50:33;0.10;99.90
2463;DHT22;1243;54.298;10.172;2023-03-01T05:53:02;0.10;99.90
2463;DHT22;1243;54.298;10.172;2023-03-01T05:55:29;0.20;99.90
2463;DHT22;1243;54.298;10.172;2023-03-01T05:57:58;0.20;99.90
2463;DHT22;1243;54.298;10.172;2023-03-01T06:00:24;0.20;99.90
2463;DHT22;1243;54.298;10.172;2023-03-01T06:02:50;0.20;99.90
2463;DHT22;1243;54.298;10.172;2023-03-01T06:05:17;0.30;99.90
2463;DHT22;1243;54.298;10.172;2023-03-01T06:07:43;0.30;99.90
2463;DHT22;1243;54.298;10.172;2023-03-01T06:10:10;0.30;99.90
2463;DHT22;1243;54.298;10.172;2023-03-01T06:12:38;0.30;99.90
2463;DHT22;1243;54.298;10.172;2023-03-01T06:15:05;0.30;99.90
2463;DHT22;1243;54.298;10.172;2023-03-01T06:17:36;0.20;99.90
2463;DHT22;1243;54.298;10.172;2023-03-01T06:20:04;0.10;99.90
2463;DHT22;1243;54.298;10.172;2023-03-01T06:22:30;0.10;99.90
2463;DHT22;1243;54.298;10.172;2023-03-01T06:24:56;0.20;99.90
2463;DHT22;1243;54.298;10.172;2023-03-01T06:27:22;0.20;99.90
2463;DHT22;1243;54.298;10.172;2023-03-01T06:29:47;0.20;99.90
2463;DHT22;1243;54.298;10.172;2023-03-01T06:32:14;0.20;99.90
2463;DHT22;1243;54.298;10.172;2023-03-01T06:34:39;0.10;99.90
2463;DHT22;1243;54.298;10.172;2023-03-01T06:37:06;0.10;99.90
2463;DHT22;1243;54.298;10.172;2023-03-01T06:39:33;0.10;99.90
2463;DHT22;1243;54.298;10.172;2023-03-01T06:41:59;0.00;99.90
2463;DHT22;1243;54.298;10.172;2023-03-01T06:44:25;-0.10;99.90
2463;DHT22;1243;54.298;10.172;2023-03-01T06:46:51;-0.10;99.90
2463;DHT22;1243;54.298;10.172;2023-03-01T06:49:17;0.00;99.90
2463;DHT22;1243;54.298;10.172;2023-03-01T06:51:43;0.10;99.90
2463;DHT22;1243;54.298;10.172;2023-03-01T06:54:09;0.00;99.90
2463;DHT22;1243;54.298;10.172;2023-03-01T06:56:35;0.00;99.90
2463;DHT22;1243;54.298;10.172;2023-03-01T06:59:01;-0.10;99.90
2463;DHT22;1243;54.298;10.172;2023-03-01T07:01:29;0.00;99.90
2463;DHT22;1243;54.298;10.172;2023-03-01T07:03:54;0.00;99.90
2463;DHT22;1243;54.298;10.172;2023-03-01T07:06:21;0.10;99.90
2463;DHT22;1243;54.298;10.172;2023-03-01T07:08:46;0.10;99.90
2463;DHT22;1243;54.298;10.172;2023-03-01T07:11:12;0.20;99.90
2463;DHT22;1243;54.298;10.172;2023-03-01T07:13:39;0.30;99.90
2463;DHT22;1243;54.298;10.172;2023-03-01T07:16:05;0.40;99.90
2463;DHT22;1243;54.298;10.172;2023-03-01T07:18:30;0.40;99.90
2463;DHT22;1243;54.298;10.172;2023-03-01T07:20:56;0.30;99.90
2463;DHT22;1243;54.298;10.172;2023-03-01T07:23:22;0.40;99.90
2463;DHT22;1243;54.298;10.172;2023-03-01T07:25:52;0.50;99.90
2463;DHT22;1243;54.298;10.172;2023-03-01T07:28:18;0.60;99.90
2463;DHT22;1243;54.298;10.172;2023-03-01T07:30:44;0.70;99.90
2463;DHT22;1243;54.298;10.172;2023-03-01T07:33:10;0.70;99.90
2463;DHT22;1243;54.298;10.172;2023-03-01T07:35:35;0.60;99.90
2463;DHT22;1243;54.298;10.172;2023-03-01T07:38:01;0.70;99.90
2463;DHT22;1243;54.298;10.172;2023-03-01T07:40:27;0.80;99.90
2463;DHT22;1243;54.298;10.172;2023-03-01T07:42:56;0.80;99.90
2463;DHT22;1243;54.298;10.172;2023-03-01T07:45:23;0.90;99.90
2463;DHT22;1243;54.298;10.172;2023-03-01T07:47:51;0.80;99.90
2463;DHT22;1243;54.298;10.172;2023-03-01T07:50:17;0.80;99.90
2463;DHT22;1243;54.298;10.172;2023-03-01T07:52:45;0.80;99.90
2463;DHT22;1243;54.298;10.172;2023-03-01T07:55:12;0.80;99.90
2463;DHT22;1243;54.298;10.172;2023-03-01T07:57:38;0.90;99.90
2463;DHT22;1243;54.298;10.172;2023-03-01T08:00:04;0.90;99.90
2463;DHT22;1243;54.298;10.172;2023-03-01T08:02:31;1.00;99.90
2463;DHT22;1243;54.298;10.172;2023-03-01T08:04:56;1.00;99.90
2463;DHT22;1243;54.298;10.172;2023-03-01T08:07:22;1.10;99.90
2463;DHT22;1243;54.298;10.172;2023-03-01T08:09:48;1.10;99.90
2463;DHT22;1243;54.298;10.172;2023-03-01T08:12:14;1.20;99.90
2463;DHT22;1243;54.298;10.172;2023-03-01T08:14:41;1.30;99.90
2463;DHT22;1243;54.298;10.172;2023-03-01T08:17:07;1.40;99.90
2463;DHT22;1243;54.298;10.172;2023-03-01T08:19:33;1.40;99.90
2463;DHT22;1243;54.298;10.172;2023-03-01T08:22:02;1.40;99.90
2463;DHT22;1243;54.298;10.172;2023-03-01T08:24:28;1.40;99.90
2463;DHT22;1243;54.298;10.172;2023-03-01T08:26:54;1.50;99.90
2463;DHT22;1243;54.298;10.172;2023-03-01T08:29:20;1.50;99.90
2463;DHT22;1243;54.298;10.172;2023-03-01T08:31:46;1.70;99.90
2463;DHT22;1243;54.298;10.172;2023-03-01T08:34:15;1.80;99.90
2463;DHT22;1243;54.298;10.172;2023-03-01T08:36:43;1.70;99.90
2463;DHT22;1243;54.298;10.172;2023-03-01T08:39:11;1.70;99.90
2463;DHT22;1243;54.298;10.172;2023-03-01T08:41:38;1.80;99.90
2463;DHT22;1243;54.298;10.172;2023-03-01T08:44:04;1.90;99.90
2463;DHT22;1243;54.298;10.172;2023-03-01T08:46:38;2.00;99.90
2463;DHT22;1243;54.298;10.172;2023-03-01T08:49:05;2.10;99.90
2463;DHT22;1243;54.298;10.172;2023-03-01T08:51:32;2.10;99.90
2463;DHT22;1243;54.298;10.172;2023-03-01T08:54:03;2.10;99.90
2463;DHT22;1243;54.298;10.172;2023-03-01T08:56:29;2.00;99.90
2463;DHT22;1243;54.298;10.172;2023-03-01T08:58:54;1.90;99.90
2463;DHT22;1243;54.298;10.172;2023-03-01T09:01:20;1.80;99.90
2463;DHT22;1243;54.298;10.172;2023-03-01T09:03:46;1.70;99.90
2463;DHT22;1243;54.298;10.172;2023-03-01T09:06:12;1.70;99.90
2463;DHT22;1243;54.298;10.172;2023-03-01T09:08:44;1.80;99.90
2463;DHT22;1243;54.298;10.172;2023-03-01T09:11:12;1.80;99.90
2463;DHT22;1243;54.298;10.172;2023-03-01T09:13:38;1.90;99.90
2463;DHT22;1243;54.298;10.172;2023-03-01T09:16:05;2.00;99.90
2463;DHT22;1243;54.298;10.172;2023-03-01T09:18:32;2.10;99.90
2463;DHT22;1243;54.298;10.172;2023-03-01T09:21:07;2.10;99.90
2463;DHT22;1243;54.298;10.172;2023-03-01T09:23:38;2.20;99.90
2463;DHT22;1243;54.298;10.172;2023-03-01T09:26:09;2.10;99.90
2463;DHT22;1243;54.298;10.172;2023-03-01T09:28:36;2.00;99.90
2463;DHT22;1243;54.298;10.172;2023-03-01T09:31:03;2.00;99.90
2463;DHT22;1243;54.298;10.172;2023-03-01T09:33:30;2.00;99.90
2463;DHT22;1243;54.298;10.172;2023-03-01T09:36:00;2.10;99.90
2463;DHT22;1243;54.298;10.172;2023-03-01T09:38:26;2.10;99.90
2463;DHT22;1243;54.298;10.172;2023-03-01T09:40:52;2.20;99.90
2463;DHT22;1243;54.298;10.172;2023-03-01T09:43:43;2.40;99.90
2463;DHT22;1243;54.298;10.172;2023-03-01T09:46:13;2.30;99.90
2463;DHT22;1243;54.298;10.172;2023-03-01T09:48:49;2.20;99.90
2463;DHT22;1243;54.298;10.172;2023-03-01T09:51:24;2.30;99.90
2463;DHT22;1243;54.298;10.172;2023-03-01T09:53:53;2.40;99.90
2463;DHT22;1243;54.298;10.172;2023-03-01T09:56:27;2.40;99.90
2463;DHT22;1243;54.298;10.172;2023-03-01T10:01:52;2.40;99.90
2463;DHT22;1243;54.298;10.172;2023-03-01T10:04:28;2.50;99.90
2463;DHT22;1243;54.298;10.172;2023-03-01T10:09:37;2.60;99.90
2463;DHT22;1243;54.298;10.172;2023-03-01T10:12:12;2.70;99.90
2463;DHT22;1243;54.298;10.172;2023-03-01T10:14:42;2.40;99.90
2463;DHT22;1243;54.298;10.172;2023-03-01T10:19:50;2.50;99.90
2463;DHT22;1243;54.298;10.172;2023-03-01T10:22:26;2.50;99.90
2463;DHT22;1243;54.298;10.172;2023-03-01T10:25:02;2.50;99.90
2463;DHT22;1243;54.298;10.172;2023-03-01T10:32:47;2.40;99.90
2463;DHT22;1243;54.298;10.172;2023-03-01T10:35:21;2.60;99.90
2463;DHT22;1243;54.298;10.172;2023-03-01T10:38:05;2.70;99.90
2463;DHT22;1243;54.298;10.172;2023-03-01T10:40:36;3.00;1.00
2463;DHT22;1243;54.298;10.172;2023-03-01T10:43:14;3.00;99.90
2463;DHT22;1243;54.298;10.172;2023-03-01T10:45:40;2.90;99.90
2463;DHT22;1243;54.298;10.172;2023-03-01T10:48:23;3.10;99.90
2463;DHT22;1243;54.298;10.172;2023-03-01T10:56:08;3.40;99.90
2463;DHT22;1243;54.298;10.172;2023-03-01T10:58:36;3.30;99.90
2463;DHT22;1243;54.298;10.172;2023-03-01T11:03:37;3.10;99.90
2463;DHT22;1243;54.298;10.172;2023-03-01T11:08:49;3.00;99.90
2463;DHT22;1243;54.298;10.172;2023-03-01T11:11:42;3.00;99.90
2463;DHT22;1243;54.298;10.172;2023-03-01T11:14:30;3.20;99.90
2463;DHT22;1243;54.298;10.172;2023-03-01T11:17:01;3.20;99.90
2463;DHT22;1243;54.298;10.172;2023-03-01T11:19:27;3.20;99.90
2463;DHT22;1243;54.298;10.172;2023-03-01T11:22:03;3.30;99.90
2463;DHT22;1243;54.298;10.172;2023-03-01T11:24:46;3.40;99.90
2463;DHT22;1243;54.298;10.172;2023-03-01T11:27:19;3.40;99.90
2463;DHT22;1243;54.298;10.172;2023-03-01T11:30:24;3.30;99.90
2463;DHT22;1243;54.298;10.172;2023-03-01T11:35:29;3.30;99.90
2463;DHT22;1243;54.298;10.172;2023-03-01T11:38:02;3.40;99.90
2463;DHT22;1243;54.298;10.172;2023-03-01T11:40:39;3.50;99.90
2463;DHT22;1243;54.298;10.172;2023-03-01T11:54:17;4.20;99.90
2463;DHT22;1243;54.298;10.172;2023-03-01T11:57:02;4.30;99.90
2463;DHT22;1243;54.298;10.172;2023-03-01T12:10:32;3.60;99.90
2463;DHT22;1243;54.298;10.172;2023-03-01T12:13:21;3.70;99.90
2463;DHT22;1243;54.298;10.172;2023-03-01T12:15:58;4.00;99.90
2463;DHT22;1243;54.298;10.172;2023-03-01T12:18:55;4.10;99.90
2463;DHT22;1243;54.298;10.172;2023-03-01T12:24:42;4.10;99.90
2463;DHT22;1243;54.298;10.172;2023-03-01T12:27:38;4.20;99.90
2463;DHT22;1243;54.298;10.172;2023-03-01T12:30:25;4.40;99.90
2463;DHT22;1243;54.298;10.172;2023-03-01T12:33:16;4.60;99.90
2463;DHT22;1243;54.298;10.172;2023-03-01T12:44:01;6.30;99.90
2463;DHT22;1243;54.298;10.172;2023-03-01T12:49:23;5.90;91.30
2463;DHT22;1243;54.298;10.172;2023-03-01T12:54:40;5.60;90.90
2463;DHT22;1243;54.298;10.172;2023-03-01T12:57:31;5.60;93.00
2463;DHT22;1243;54.298;10.172;2023-03-01T13:02:39;6.60;99.90
2463;DHT22;1243;54.298;10.172;2023-03-01T13:08:07;7.70;97.70
2463;DHT22;1243;54.298;10.172;2023-03-01T13:10:46;8.90;92.00
2463;DHT22;1243;54.298;10.172;2023-03-01T13:13:21;10.70;92.30
2463;DHT22;1243;54.298;10.172;2023-03-01T13:15:48;11.10;26.60
2463;DHT22;1243;54.298;10.172;2023-03-01T13:23:26;9.50;1.00
2463;DHT22;1243;54.298;10.172;2023-03-01T13:26:03;8.80;1.00
2463;DHT22;1243;54.298;10.172;2023-03-01T13:28:39;7.90;1.00
2463;DHT22;1243;54.298;10.172;2023-03-01T13:31:11;7.00;1.00
2463;DHT22;1243;54.298;10.172;2023-03-01T13:33:57;6.40;1.00
2463;DHT22;1243;54.298;10.172;2023-03-01T13:46:51;4.80;1.00
2463;DHT22;1243;54.298;10.172;2023-03-01T13:49:28;4.40;1.00
2463;DHT22;1243;54.298;10.172;2023-03-01T13:51:56;4.00;1.00
2463;DHT22;1243;54.298;10.172;2023-03-01T13:54:30;3.90;18.90
2463;DHT22;1243;54.298;10.172;2023-03-01T13:56:58;3.70;41.30
2463;DHT22;1243;54.298;10.172;2023-03-01T13:59:24;3.50;65.90
2463;DHT22;1243;54.298;10.172;2023-03-01T14:01:59;3.50;90.20
2463;DHT22;1243;54.298;10.172;2023-03-01T14:04:31;3.60;94.60
2463;DHT22;1243;54.298;10.172;2023-03-01T14:07:13;3.90;99.90
2463;DHT22;1243;54.298;10.172;2023-03-01T14:09:44;4.00;99.90
2463;DHT22;1243;54.298;10.172;2023-03-01T14:15:02;4.10;99.90
2463;DHT22;1243;54.298;10.172;2023-03-01T14:20:24;3.90;96.00
2463;DHT22;1243;54.298;10.172;2023-03-01T14:22:54;3.60;94.40
2463;DHT22;1243;54.298;10.172;2023-03-01T14:25:32;3.50;99.90
2463;DHT22;1243;54.298;10.172;2023-03-01T14:28:12;3.40;99.90
2463;DHT22;1243;54.298;10.172;2023-03-01T14:30:43;3.20;99.90
2463;DHT22;1243;54.298;10.172;2023-03-01T14:35:57;2.80;99.90
2463;DHT22;1243;54.298;10.172;2023-03-01T14:38:41;2.80;99.90
2463;DHT22;1243;54.298;10.172;2023-03-01T14:41:15;2.70;99.90
2463;DHT22;1243;54.298;10.172;2023-03-01T14:43:44;2.60;99.90
2463;DHT22;1243;54.298;10.172;2023-03-01T14:46:23;2.50;99.90
2463;DHT22;1243;54.298;10.172;2023-03-01T14:48:55;2.50;99.90
2463;DHT22;1243;54.298;10.172;2023-03-01T14:51:22;2.40;99.90
2463;DHT22;1243;54.298;10.172;2023-03-01T14:53:48;2.30;99.90
2463;DHT22;1243;54.298;10.172;2023-03-01T14:56:15;2.20;99.90
2463;DHT22;1243;54.298;10.172;2023-03-01T14:58:45;2.40;99.90
2463;DHT22;1243;54.298;10.172;2023-03-01T15:01:15;2.40;99.90
2463;DHT22;1243;54.298;10.172;2023-03-01T15:03:49;2.30;99.90
2463;DHT22;1243;54.298;10.172;2023-03-01T15:06:18;2.30;99.90
2463;DHT22;1243;54.298;10.172;2023-03-01T15:08:50;2.40;99.90
2463;DHT22;1243;54.298;10.172;2023-03-01T15:11:21;2.50;99.90
2463;DHT22;1243;54.298;10.172;2023-03-01T15:13:48;2.50;99.90
2463;DHT22;1243;54.298;10.172;2023-03-01T15:16:18;2.60;99.90
2463;DHT22;1243;54.298;10.172;2023-03-01T15:18:54;2.60;99.90
2463;DHT22;1243;54.298;10.172;2023-03-01T15:21:40;2.60;99.90
2463;DHT22;1243;54.298;10.172;2023-03-01T15:26:59;2.60;99.90
2463;DHT22;1243;54.298;10.172;2023-03-01T15:29:33;2.70;99.90
2463;DHT22;1243;54.298;10.172;2023-03-01T15:32:29;2.80;99.90
2463;DHT22;1243;54.298;10.172;2023-03-01T15:34:59;2.90;99.90
2463;DHT22;1243;54.298;10.172;2023-03-01T15:37:45;2.80;99.90
2463;DHT22;1243;54.298;10.172;2023-03-01T15:40:27;2.70;99.90
2463;DHT22;1243;54.298;10.172;2023-03-01T15:43:00;2.50;99.90
2463;DHT22;1243;54.298;10.172;2023-03-01T15:45:29;2.50;99.90
2463;DHT22;1243;54.298;10.172;2023-03-01T15:47:55;2.50;1.00
2463;DHT22;1243;54.298;10.172;2023-03-01T15:50:28;2.50;1.00
2463;DHT22;1243;54.298;10.172;2023-03-01T15:52:56;2.60;1.00
2463;DHT22;1243;54.298;10.172;2023-03-01T15:55:25;2.70;1.00
2463;DHT22;1243;54.298;10.172;2023-03-01T15:58:03;2.80;1.00
2463;DHT22;1243;54.298;10.172;2023-03-01T16:00:29;2.80;1.00
2463;DHT22;1243;54.298;10.172;2023-03-01T16:02:55;2.80;1.00
2463;DHT22;1243;54.298;10.172;2023-03-01T16:05:30;2.60;1.00
2463;DHT22;1243;54.298;10.172;2023-03-01T16:07:56;2.50;1.00
2463;DHT22;1243;54.298;10.172;2023-03-01T16:10:22;2.30;1.00
2463;DHT22;1243;54.298;10.172;2023-03-01T16:12:48;2.30;1.00
2463;DHT22;1243;54.298;10.172;2023-03-01T16:15:26;2.30;1.00
2463;DHT22;1243;54.298;10.172;2023-03-01T16:17:52;2.20;1.00
2463;DHT22;1243;54.298;10.172;2023-03-01T16:20:19;2.30;1.00
2463;DHT22;1243;54.298;10.172;2023-03-01T16:22:45;2.40;1.00
2463;DHT22;1243;54.298;10.172;2023-03-01T16:25:13;2.40;1.00
2463;DHT22;1243;54.298;10.172;2023-03-01T16:27:42;2.50;1.00
2463;DHT22;1243;54.298;10.172;2023-03-01T16:30:09;2.40;1.00
2463;DHT22;1243;54.298;10.172;2023-03-01T16:32:39;2.40;1.00
2463;DHT22;1243;54.298;10.172;2023-03-01T16:35:10;2.40;1.00
2463;DHT22;1243;54.298;10.172;2023-03-01T16:37:37;2.40;1.00
2463;DHT22;1243;54.298;10.172;2023-03-01T16:40:04;2.50;1.00
2463;DHT22;1243;54.298;10.172;2023-03-01T16:42:34;2.50;1.00
2463;DHT22;1243;54.298;10.172;2023-03-01T16:44:59;2.40;1.00
2463;DHT22;1243;54.298;10.172;2023-03-01T16:47:27;2.40;1.00
2463;DHT22;1243;54.298;10.172;2023-03-01T16:49:53;2.40;1.00
2463;DHT22;1243;54.298;10.172;2023-03-01T16:52:20;2.40;1.00
2463;DHT22;1243;54.298;10.172;2023-03-01T16:54:46;2.50;1.00
2463;DHT22;1243;54.298;10.172;2023-03-01T16:57:12;2.50;1.00
2463;DHT22;1243;54.298;10.172;2023-03-01T16:59:38;2.40;1.00
2463;DHT22;1243;54.298;10.172;2023-03-01T17:02:04;2.60;1.00
2463;DHT22;1243;54.298;10.172;2023-03-01T17:04:35;2.60;1.00
2463;DHT22;1243;54.298;10.172;2023-03-01T17:07:00;2.70;1.00
2463;DHT22;1243;54.298;10.172;2023-03-01T17:09:26;2.90;1.00
2463;DHT22;1243;54.298;10.172;2023-03-01T17:11:52;2.80;1.00
2463;DHT22;1243;54.298;10.172;2023-03-01T17:14:18;2.80;1.00
2463;DHT22;1243;54.298;10.172;2023-03-01T17:16:44;2.80;1.00
2463;DHT22;1243;54.298;10.172;2023-03-01T17:19:10;2.80;1.00
2463;DHT22;1243;54.298;10.172;2023-03-01T17:21:36;2.70;1.00
2463;DHT22;1243;54.298;10.172;2023-03-01T17:24:02;2.70;1.00
2463;DHT22;1243;54.298;10.172;2023-03-01T17:26:28;2.60;1.00
2463;DHT22;1243;54.298;10.172;2023-03-01T17:28:55;2.70;1.00
2463;DHT22;1243;54.298;10.172;2023-03-01T17:31:22;2.60;1.00
2463;DHT22;1243;54.298;10.172;2023-03-01T17:33:48;2.60;1.00
2463;DHT22;1243;54.298;10.172;2023-03-01T17:36:14;2.50;1.00
2463;DHT22;1243;54.298;10.172;2023-03-01T17:38:40;2.50;1.00
2463;DHT22;1243;54.298;10.172;2023-03-01T17:41:06;2.50;1.00
2463;DHT22;1243;54.298;10.172;2023-03-01T17:43:32;2.50;1.00
2463;DHT22;1243;54.298;10.172;2023-03-01T17:45:59;2.50;1.00
2463;DHT22;1243;54.298;10.172;2023-03-01T17:48:26;2.50;1.00
2463;DHT22;1243;54.298;10.172;2023-03-01T17:50:51;2.50;1.00
2463;DHT22;1243;54.298;10.172;2023-03-01T17:53:17;2.50;1.00
2463;DHT22;1243;54.298;10.172;2023-03-01T17:55:43;2.40;1.00
2463;DHT22;1243;54.298;10.172;2023-03-01T17:58:11;2.40;1.00
2463;DHT22;1243;54.298;10.172;2023-03-01T18:00:38;2.40;1.00
2463;DHT22;1243;54.298;10.172;2023-03-01T18:03:04;2.40;1.00
2463;DHT22;1243;54.298;10.172;2023-03-01T18:05:34;2.50;1.00
2463;DHT22;1243;54.298;10.172;2023-03-01T18:08:00;2.50;17.20
2463;DHT22;1243;54.298;10.172;2023-03-01T18:10:26;2.50;26.70